Time;durP1;ratioP1;P1;durP2;ratioP2;P2;SDS_P1;SDS_P2;PMS_P1;PMS_P2;Temp;Humidity;BMP_temperature;BMP_pressure;BME280_temperature;BME280_humidity;BME280_pressure;Samples;Min_cycle;Max_cycle;Signal;HPM_P1;HPM_P2
2022/05/07 00:02:18;;;;;;;3.38;2.70;;;15.00;99.90;;;;;;5070491;28;20597;-77
2022/05/07 00:04:45;;;;;;;3.15;2.85;;;15.00;99.90;;;;;;5070672;28;20206;-82
2022/05/07 00:07:14;;;;;;;6.05;3.17;;;14.90;99.90;;;;;;5070176;28;20259;-80
2022/05/07 00:09:41;;;;;;;4.05;2.75;;;14.90;99.90;;;;;;5070995;28;20202;-80
2022/05/07 00:12:09;;;;;;;2.97;2.50;;;14.90;99.90;;;;;;5070358;28;20652;-79
2022/05/07 00:14:36;;;;;;;3.00;2.53;;;14.90;99.90;;;;;;5070608;28;20665;-79
2022/05/07 00:19:48;;;;;;;4.85;2.95;;;14.80;99.90;;;;;;5070245;28;20569;-80
2022/05/07 00:22:17;;;;;;;5.30;3.20;;;14.80;99.90;;;;;;5070588;28;20806;-81
2022/05/07 00:24:44;;;;;;;5.50;2.92;;;14.60;99.90;;;;;;5070840;28;20548;-82
2022/05/07 00:27:13;;;;;;;4.93;3.42;;;14.60;99.90;;;;;;5070501;28;20198;-83
2022/05/07 00:29:40;;;;;;;5.50;3.92;;;14.60;99.90;;;;;;5071240;28;20205;-83
2022/05/07 00:32:09;;;;;;;4.60;3.33;;;14.50;99.90;;;;;;5070226;28;20226;-80
2022/05/07 00:34:36;;;;;;;5.38;3.17;;;14.40;99.90;;;;;;5070318;28;20534;-80
2022/05/07 00:37:04;;;;;;;5.72;3.78;;;14.40;99.90;;;;;;5070214;28;20221;-75
2022/05/07 00:39:32;;;;;;;4.85;3.80;;;14.40;99.90;;;;;;5070471;28;20202;-71
2022/05/07 00:42:04;;;;;;;4.57;3.92;;;14.50;99.90;;;;;;5070128;28;20210;-78
2022/05/07 00:44:31;;;;;;;3.55;3.25;;;14.50;99.90;;;;;;5070348;28;20199;-79
2022/05/07 00:47:12;;;;;;;9.05;4.18;;;14.40;99.90;;;;;;5069659;28;20199;-72
2022/05/07 00:49:40;;;;;;;4.03;3.63;;;14.40;99.90;;;;;;5070293;28;20248;-72
2022/05/07 00:52:07;;;;;;;5.90;3.83;;;14.30;99.90;;;;;;5069866;28;20230;-71
2022/05/07 00:54:35;;;;;;;3.95;3.25;;;14.30;99.90;;;;;;5070339;28;20211;-74
2022/05/07 00:57:03;;;;;;;4.80;3.70;;;14.10;99.90;;;;;;5069780;28;20215;-70
2022/05/07 00:59:30;;;;;;;4.28;3.65;;;14.00;99.90;;;;;;5070171;28;20677;-70
2022/05/07 01:01:57;;;;;;;6.15;3.45;;;14.00;99.90;;;;;;5070118;28;20202;-71
2022/05/07 01:04:25;;;;;;;5.28;4.13;;;14.20;99.90;;;;;;5070324;28;20613;-71
2022/05/07 01:06:52;;;;;;;6.72;4.35;;;14.00;99.90;;;;;;5070333;28;20263;-71
2022/05/07 01:09:20;;;;;;;4.53;3.08;;;14.00;99.90;;;;;;5070285;28;20340;-73
2022/05/07 01:11:48;;;;;;;4.60;3.90;;;13.90;99.90;;;;;;5073457;28;20207;-70
2022/05/07 01:14:15;;;;;;;4.25;3.38;;;13.80;99.90;;;;;;5073040;28;20607;-71
2022/05/07 01:16:42;;;;;;;5.80;3.97;;;13.90;99.90;;;;;;5073309;28;20661;-71
2022/05/07 01:19:09;;;;;;;4.82;4.43;;;13.80;99.90;;;;;;5073023;28;20206;-70
2022/05/07 01:21:38;;;;;;;4.45;3.78;;;13.70;99.90;;;;;;5073466;28;20203;-70
2022/05/07 01:24:06;;;;;;;4.25;3.40;;;13.80;99.90;;;;;;5073050;28;20210;-70
2022/05/07 01:26:33;;;;;;;7.65;3.75;;;13.70;99.90;;;;;;5073731;28;20210;-85
2022/05/07 01:29:01;;;;;;;5.00;4.60;;;13.70;99.90;;;;;;5073325;28;20198;-77
2022/05/07 01:31:28;;;;;;;5.00;4.10;;;13.60;99.90;;;;;;5072925;28;20666;-78
2022/05/07 01:33:55;;;;;;;6.55;4.47;;;13.70;99.90;;;;;;5073578;28;20237;-76
2022/05/07 01:36:22;;;;;;;4.57;4.15;;;13.70;99.90;;;;;;5073211;28;20202;-79
2022/05/07 01:38:51;;;;;;;5.82;4.13;;;13.60;99.90;;;;;;5073222;28;20665;-80
2022/05/07 01:41:18;;;;;;;6.07;4.03;;;13.60;99.90;;;;;;5072775;28;20216;-79
2022/05/07 01:43:46;;;;;;;5.95;5.38;;;13.70;99.90;;;;;;5073404;28;20206;-81
2022/05/07 01:48:53;;;;;;;5.45;4.40;;;13.50;99.90;;;;;;5073203;28;20202;-82
2022/05/07 01:51:20;;;;;;;4.53;4.13;;;13.50;99.90;;;;;;5072939;28;20731;-80
2022/05/07 01:53:47;;;;;;;5.13;4.65;;;13.50;99.90;;;;;;5060541;28;20786;-79
2022/05/07 01:56:16;;;;;;;5.72;4.82;;;13.40;99.90;;;;;;5052298;28;20264;-76
2022/05/07 01:58:44;;;;;;;6.90;4.90;;;13.40;99.90;;;;;;5052939;28;20203;-76
2022/05/07 02:01:11;;;;;;;4.93;4.43;;;13.40;99.90;;;;;;5052156;28;20207;-75
2022/05/07 02:03:39;;;;;;;7.78;5.60;;;13.40;99.90;;;;;;5052652;28;20203;-76
2022/05/07 02:06:06;;;;;;;4.82;4.05;;;13.40;99.90;;;;;;5052160;28;20294;-74
2022/05/07 02:08:33;;;;;;;8.18;5.68;;;13.40;99.90;;;;;;5052641;28;20261;-71
2022/05/07 02:11:01;;;;;;;5.78;4.88;;;13.40;99.90;;;;;;5052430;28;20203;-73
2022/05/07 02:13:30;;;;;;;5.20;4.43;;;13.40;99.90;;;;;;5052960;28;20239;-76
2022/05/07 02:15:57;;;;;;;5.47;4.82;;;13.50;99.90;;;;;;5052240;28;20206;-71
2022/05/07 02:18:24;;;;;;;6.97;4.50;;;13.30;99.90;;;;;;5052556;28;20210;-75
2022/05/07 02:20:52;;;;;;;5.20;4.70;;;13.40;99.90;;;;;;5052035;28;20293;-70
2022/05/07 02:23:20;;;;;;;5.82;4.53;;;13.20;99.90;;;;;;5052043;28;20292;-74
2022/05/07 02:25:47;;;;;;;4.95;4.45;;;13.20;99.90;;;;;;5052130;28;20670;-73
2022/05/07 02:28:14;;;;;;;6.85;4.97;;;13.20;99.90;;;;;;5051776;28;20268;-72
2022/05/07 02:30:42;;;;;;;5.78;5.05;;;13.20;99.90;;;;;;5051900;28;20286;-74
2022/05/07 02:33:09;;;;;;;7.22;5.20;;;13.10;99.90;;;;;;5051446;28;20767;-73
2022/05/07 02:35:37;;;;;;;9.70;6.45;;;13.10;99.90;;;;;;5051971;28;20804;-72
2022/05/07 02:38:04;;;;;;;6.72;4.68;;;13.00;99.90;;;;;;5051426;28;20310;-73
2022/05/07 02:42:33;;;;;;;6.15;5.00;;;13.00;99.90;;;;;;5051904;28;20207;-72
2022/05/07 02:43:17;;;;;;;8.80;6.28;;;13.00;99.90;;;;;;5051035;28;20325;-73
2022/05/07 02:45:45;;;;;;;7.75;5.30;;;13.00;99.90;;;;;;5051795;28;20303;-73
2022/05/07 02:48:12;;;;;;;9.40;5.65;;;12.90;99.90;;;;;;5051365;28;20203;-73
2022/05/07 02:50:39;;;;;;;7.95;5.28;;;13.00;99.90;;;;;;5051838;28;20249;-73
2022/05/07 02:53:06;;;;;;;6.63;5.40;;;12.90;99.90;;;;;;5051184;28;20268;-73
2022/05/07 02:55:33;;;;;;;6.55;5.13;;;13.00;99.90;;;;;;5051514;28;20202;-76
2022/05/07 02:58:01;;;;;;;7.32;5.20;;;12.90;99.90;;;;;;5050666;28;20199;-78
2022/05/07 03:00:28;;;;;;;11.02;6.13;;;12.90;99.90;;;;;;5051807;28;20211;-78
2022/05/07 03:02:56;;;;;;;8.02;5.63;;;12.90;99.90;;;;;;5051911;28;20215;-75
2022/05/07 03:05:23;;;;;;;6.25;4.75;;;12.90;99.90;;;;;;5051666;28;20686;-80
2022/05/07 03:07:50;;;;;;;8.27;5.88;;;12.80;99.90;;;;;;5051316;28;20581;-81
2022/05/07 03:10:17;;;;;;;6.35;5.82;;;12.80;99.90;;;;;;5050974;28;20211;-80
2022/05/07 03:12:44;;;;;;;7.18;5.32;;;12.80;99.90;;;;;;5051064;28;20226;-81
2022/05/07 03:15:11;;;;;;;6.40;5.80;;;12.80;99.90;;;;;;5050893;28;20237;-78
2022/05/07 03:17:38;;;;;;;6.65;5.50;;;12.70;99.90;;;;;;5051325;28;20207;-80
2022/05/07 03:20:11;;;;;;;6.00;5.40;;;12.70;99.90;;;;;;5050831;28;20202;-82
2022/05/07 03:22:39;;;;;;;6.97;5.35;;;12.70;99.90;;;;;;5051215;28;20207;-80
2022/05/07 03:25:06;;;;;;;8.10;6.38;;;12.60;99.90;;;;;;5050718;28;20677;-79
2022/05/07 03:27:33;;;;;;;7.40;5.88;;;12.50;99.90;;;;;;5051209;28;20215;-73
2022/05/07 03:30:00;;;;;;;11.25;5.82;;;12.50;99.90;;;;;;5051096;28;20238;-80
2022/05/07 03:32:27;;;;;;;12.52;7.47;;;12.40;99.90;;;;;;5050572;28;20202;-79
2022/05/07 03:34:57;;;;;;;7.47;6.70;;;12.40;99.90;;;;;;5051173;28;20611;-73
2022/05/07 03:37:25;;;;;;;6.85;5.80;;;12.50;99.90;;;;;;5051030;28;20212;-73
2022/05/07 03:39:52;;;;;;;7.30;6.60;;;12.50;99.90;;;;;;5051195;28;20320;-75
2022/05/07 03:42:19;;;;;;;9.90;6.53;;;12.60;99.90;;;;;;5050263;28;20633;-81
2022/05/07 03:44:47;;;;;;;7.18;6.35;;;12.60;99.90;;;;;;5050636;28;20214;-80
2022/05/07 03:47:14;;;;;;;7.90;7.03;;;12.50;99.90;;;;;;5050650;28;20198;-81
2022/05/07 03:49:41;;;;;;;7.90;7.10;;;12.50;99.90;;;;;;5051086;28;20256;-82
2022/05/07 03:54:53;;;;;;;9.57;6.55;;;12.40;99.90;;;;;;5051146;28;20213;-72
2022/05/07 03:57:20;;;;;;;10.77;8.23;;;12.40;99.90;;;;;;5050024;28;20229;-73
2022/05/07 03:59:47;;;;;;;9.23;7.05;;;12.30;99.90;;;;;;5050741;28;20727;-73
2022/05/07 04:02:15;;;;;;;12.43;7.05;;;12.30;99.90;;;;;;5050211;28;20629;-74
2022/05/07 04:04:43;;;;;;;7.97;6.93;;;12.20;99.90;;;;;;5057504;28;20198;-78
2022/05/07 04:07:10;;;;;;;11.57;8.27;;;12.20;99.90;;;;;;5058625;28;20202;-72
2022/05/07 04:09:37;;;;;;;11.35;7.10;;;12.30;99.90;;;;;;5070479;28;20206;-71
2022/05/07 04:12:06;;;;;;;11.60;7.60;;;12.20;99.90;;;;;;5054123;28;20230;-73
2022/05/07 04:14:33;;;;;;;9.40;8.40;;;12.20;99.90;;;;;;5050568;28;20234;-80
2022/05/07 04:17:00;;;;;;;10.68;6.97;;;12.10;99.90;;;;;;5050234;28;20207;-73
2022/05/07 04:19:27;;;;;;;12.45;7.82;;;12.30;99.90;;;;;;5050646;28;20340;-74
2022/05/07 04:21:54;;;;;;;10.48;7.22;;;12.30;99.90;;;;;;5050933;28;20245;-72
2022/05/07 04:24:22;;;;;;;10.77;7.60;;;12.30;99.90;;;;;;5066696;28;20202;-73
2022/05/07 04:26:49;;;;;;;8.20;7.10;;;12.20;99.90;;;;;;5070309;28;20212;-76
2022/05/07 04:29:18;;;;;;;10.63;7.70;;;12.20;99.90;;;;;;5069888;28;20666;-79
2022/05/07 04:31:46;;;;;;;8.77;7.82;;;12.30;99.90;;;;;;5062011;28;20241;-79
2022/05/07 04:34:13;;;;;;;12.30;9.05;;;12.20;99.90;;;;;;5069592;28;20226;-77
2022/05/07 04:36:40;;;;;;;8.60;7.50;;;12.10;99.90;;;;;;5070302;28;20295;-79
2022/05/07 04:39:07;;;;;;;9.57;8.75;;;12.10;99.90;;;;;;5069512;28;20221;-78
2022/05/07 04:41:34;;;;;;;9.63;8.63;;;12.20;99.90;;;;;;5070199;28;20264;-76
2022/05/07 04:44:02;;;;;;;12.85;8.82;;;12.30;99.90;;;;;;5071311;28;20206;-75
2022/05/07 04:46:30;;;;;;;9.88;7.95;;;12.20;99.90;;;;;;5073828;28;20212;-80
2022/05/07 04:48:57;;;;;;;10.65;8.40;;;12.20;99.90;;;;;;5073399;28;20673;-75
2022/05/07 04:51:24;;;;;;;10.07;8.35;;;12.20;99.90;;;;;;5073689;28;20206;-74
2022/05/07 04:53:51;;;;;;;9.75;7.88;;;12.10;99.90;;;;;;5073582;28;20233;-81
2022/05/07 04:56:21;;;;;;;10.38;9.00;;;12.10;99.90;;;;;;5073402;28;20632;-79
2022/05/07 04:58:48;;;;;;;11.40;8.65;;;12.20;99.90;;;;;;5072502;28;20259;-78
2022/05/07 05:01:15;;;;;;;9.73;8.55;;;12.30;99.90;;;;;;5073134;28;20201;-73
2022/05/07 05:03:43;;;;;;;10.05;9.02;;;12.40;99.90;;;;;;5073530;28;20210;-77
2022/05/07 05:06:10;;;;;;;12.25;9.07;;;12.50;99.90;;;;;;5072453;28;20260;-74
2022/05/07 05:08:37;;;;;;;11.13;9.07;;;12.50;99.90;;;;;;5073252;28;20272;-73
2022/05/07 05:11:04;;;;;;;12.20;9.88;;;12.60;99.90;;;;;;5073122;28;20202;-80
2022/05/07 05:13:31;;;;;;;13.05;8.93;;;12.60;99.90;;;;;;5072525;28;20659;-79
2022/05/07 05:15:59;;;;;;;11.63;9.15;;;12.50;99.90;;;;;;5072994;28;20682;-78
2022/05/07 05:18:26;;;;;;;12.10;9.43;;;12.60;99.90;;;;;;5073158;28;20210;-78
2022/05/07 05:20:55;;;;;;;16.50;10.90;;;12.60;99.90;;;;;;5073496;28;20202;-78
2022/05/07 05:23:23;;;;;;;12.02;7.90;;;12.70;99.90;;;;;;5072862;28;20217;-79
2022/05/07 05:25:50;;;;;;;10.82;8.60;;;12.70;99.90;;;;;;5072898;28;20237;-80
2022/05/07 05:28:17;;;;;;;12.38;9.55;;;12.70;99.90;;;;;;5072537;28;20195;-80
2022/05/07 05:30:46;;;;;;;12.15;10.25;;;12.80;99.90;;;;;;5072959;28;20205;-79
2022/05/07 05:33:13;;;;;;;9.98;8.88;;;13.00;99.90;;;;;;5072445;28;20674;-71
2022/05/07 05:35:40;;;;;;;13.70;9.13;;;13.00;99.90;;;;;;5072597;28;20625;-71
2022/05/07 05:38:08;;;;;;;10.65;9.55;;;13.20;99.90;;;;;;5072702;28;20642;-71
2022/05/07 05:40:35;;;;;;;11.50;9.80;;;13.30;99.90;;;;;;5072631;28;20802;-72
2022/05/07 05:43:02;;;;;;;10.63;9.52;;;13.30;99.90;;;;;;5073006;28;20214;-70
2022/05/07 05:45:30;;;;;;;10.20;8.95;;;13.40;99.90;;;;;;5072217;28;20611;-71
2022/05/07 05:47:57;;;;;;;10.45;8.75;;;13.40;99.90;;;;;;5073071;28;20206;-70
2022/05/07 05:50:23;;;;;;;11.70;9.43;;;13.40;99.90;;;;;;5072430;28;20247;-71
2022/05/07 05:52:50;;;;;;;10.90;9.80;;;13.40;99.90;;;;;;5065947;28;20624;-71
2022/05/07 05:55:19;;;;;;;11.73;9.05;;;13.50;99.90;;;;;;5053890;28;20265;-73
2022/05/07 05:57:46;;;;;;;15.88;8.73;;;13.70;99.90;;;;;;5070566;28;20202;-71
2022/05/07 06:00:14;;;;;;;13.15;10.52;;;13.70;99.90;;;;;;5067300;28;20202;-71
2022/05/07 06:02:43;;;;;;;11.98;9.25;;;13.80;99.90;;;;;;5072405;28;20202;-75
2022/05/07 06:05:10;;;;;;;10.88;9.40;;;13.80;99.90;;;;;;5071705;28;20241;-73
2022/05/07 06:07:37;;;;;;;10.15;9.15;;;13.90;99.90;;;;;;5062224;28;20276;-73
2022/05/07 06:10:06;;;;;;;10.70;8.73;;;13.80;99.90;;;;;;5059459;28;20636;-70
2022/05/07 06:12:35;;;;;;;11.75;9.35;;;14.00;99.90;;;;;;5068279;28;20257;-72
2022/05/07 06:15:04;;;;;;;12.13;9.30;;;14.20;99.90;;;;;;5071075;28;20234;-72
2022/05/07 06:17:31;;;;;;;10.48;9.45;;;14.20;99.90;;;;;;5071874;28;20658;-75
2022/05/07 06:19:58;;;;;;;11.30;10.20;;;14.30;99.90;;;;;;5072214;28;20198;-72
2022/05/07 06:22:25;;;;;;;13.63;9.07;;;14.20;99.90;;;;;;5071667;28;20216;-75
2022/05/07 06:27:37;;;;;;;11.02;9.90;;;14.20;99.90;;;;;;5072010;28;20215;-76
2022/05/07 06:30:06;;;;;;;11.73;9.55;;;14.30;99.90;;;;;;5071597;28;20210;-72
2022/05/07 06:32:33;;;;;;;12.20;9.85;;;14.30;99.90;;;;;;5071317;28;20206;-71
2022/05/07 06:35:00;;;;;;;12.07;9.02;;;14.30;99.90;;;;;;5071707;28;20226;-71
2022/05/07 06:37:27;;;;;;;11.18;8.82;;;14.40;99.90;;;;;;5071674;28;20218;-73
2022/05/07 06:39:54;;;;;;;9.80;8.80;;;14.50;99.90;;;;;;5071615;28;20647;-76
2022/05/07 06:42:21;;;;;;;10.57;9.27;;;14.50;99.90;;;;;;5071035;28;20665;-78
2022/05/07 06:44:49;;;;;;;11.38;8.68;;;14.50;99.90;;;;;;5071402;28;20647;-78
2022/05/07 06:47:17;;;;;;;11.00;9.90;;;14.60;99.90;;;;;;5071051;28;20201;-79
2022/05/07 06:49:44;;;;;;;15.43;9.18;;;14.80;99.90;;;;;;5067403;28;20203;-78
2022/05/07 06:52:11;;;;;;;11.27;8.70;;;14.80;99.90;;;;;;5071242;28;20206;-71
2022/05/07 06:54:38;;;;;;;11.05;8.90;;;15.00;99.90;;;;;;5071205;28;20241;-82
2022/05/07 06:57:05;;;;;;;11.45;9.18;;;15.00;99.90;;;;;;5055227;28;20203;-84
2022/05/07 06:59:32;;;;;;;9.60;8.52;;;15.20;99.90;;;;;;5051587;28;20266;-79
2022/05/07 07:02:01;;;;;;;12.50;7.75;;;15.30;99.90;;;;;;5052276;28;20337;-81
2022/05/07 07:04:28;;;;;;;9.25;8.35;;;15.60;99.90;;;;;;5052050;28;20211;-72
2022/05/07 07:06:55;;;;;;;10.15;9.15;;;15.50;99.90;;;;;;5050976;28;20252;-84
2022/05/07 07:09:22;;;;;;;11.35;8.27;;;15.50;99.90;;;;;;5051215;28;20207;-79
2022/05/07 07:11:49;;;;;;;8.63;7.70;;;15.50;99.90;;;;;;5064573;28;20210;-80
2022/05/07 07:14:16;;;;;;;8.95;8.05;;;15.60;99.90;;;;;;5071014;28;20641;-72
2022/05/07 07:16:43;;;;;;;8.85;7.70;;;15.80;99.90;;;;;;5071534;28;20206;-74
2022/05/07 07:19:11;;;;;;;8.95;8.05;;;16.10;99.90;;;;;;5070946;28;20206;-75
2022/05/07 07:21:38;;;;;;;9.48;8.02;;;16.20;99.90;;;;;;5071422;28;20206;-74
2022/05/07 07:24:06;;;;;;;8.52;6.80;;;16.40;99.90;;;;;;5071184;28;20210;-73
2022/05/07 07:26:33;;;;;;;8.70;7.50;;;16.40;99.90;;;;;;5071373;28;20202;-75
2022/05/07 07:29:00;;;;;;;8.70;7.80;;;16.40;99.90;;;;;;5071695;28;20271;-83
2022/05/07 07:31:27;;;;;;;10.80;8.73;;;16.60;99.90;;;;;;5071334;28;20236;-79
2022/05/07 07:33:54;;;;;;;8.05;6.88;;;16.40;99.90;;;;;;5072684;28;20276;-77
2022/05/07 07:36:22;;;;;;;10.52;7.75;;;16.60;99.90;;;;;;5063817;28;20210;-82
2022/05/07 07:38:49;;;;;;;7.93;7.10;;;16.70;99.90;;;;;;5070870;28;20632;-73
2022/05/07 07:41:17;;;;;;;8.77;7.10;;;16.70;99.90;;;;;;5070350;28;20695;-73
2022/05/07 07:43:44;;;;;;;8.25;7.03;;;16.70;99.90;;;;;;5070867;28;20661;-76
2022/05/07 07:48:58;;;;;;;8.68;6.40;;;17.10;99.90;;;;;;5036491;28;20669;-70
2022/05/07 07:51:26;;;;;;;8.68;7.15;;;17.20;99.90;;;;;;5050272;28;20667;-70
2022/05/07 07:53:53;;;;;;;8.55;6.82;;;17.40;99.90;;;;;;5050698;28;20552;-72
2022/05/07 07:56:20;;;;;;;10.43;7.15;;;17.50;99.90;;;;;;5050332;28;20256;-73
2022/05/07 07:58:47;;;;;;;10.85;6.75;;;17.30;99.90;;;;;;5050974;28;20202;-74
2022/05/07 08:01:14;;;;;;;7.97;7.28;;;16.90;99.90;;;;;;5050416;28;20207;-74
2022/05/07 08:03:41;;;;;;;8.07;7.25;;;16.60;99.90;;;;;;5050689;28;20293;-73
2022/05/07 08:06:08;;;;;;;8.57;7.57;;;16.40;99.90;;;;;;5050237;28;20206;-73
2022/05/07 08:14:06;;;;;;;8.45;7.63;;;17.00;99.90;;;;;;5050721;28;20287;-76
2022/05/07 08:16:34;;;;;;;7.97;7.22;;;17.20;99.90;;;;;;5059765;28;20263;-81
2022/05/07 08:19:02;;;;;;;8.60;6.28;;;17.60;99.90;;;;;;5066748;28;20205;-79
2022/05/07 08:21:29;;;;;;;8.98;6.70;;;18.00;99.90;;;;;;5069995;28;20692;-78
2022/05/07 08:23:57;;;;;;;8.38;6.40;;;18.10;99.90;;;;;;5074760;28;20255;-79
2022/05/07 08:26:24;;;;;;;7.75;6.65;;;18.10;99.90;;;;;;5072836;28;20247;-75
2022/05/07 08:28:52;;;;;;;9.10;7.18;;;18.40;99.90;;;;;;5073863;28;20198;-80
2022/05/07 08:31:21;;;;;;;6.72;6.13;;;18.40;99.90;;;;;;5071155;28;20669;-79
2022/05/07 08:33:48;;;;;;;7.20;6.50;;;18.60;99.90;;;;;;5056983;28;20206;-83
2022/05/07 08:36:16;;;;;;;10.07;6.68;;;18.60;99.90;;;;;;5054419;28;20257;-88
2022/05/07 08:38:43;;;;;;;7.40;6.70;;;18.50;99.90;;;;;;5054663;28;20256;-84
2022/05/07 08:41:12;;;;;;;7.72;6.93;;;18.50;99.90;;;;;;5056845;28;20732;-82
2022/05/07 08:43:42;;;;;;;10.43;7.38;;;18.40;99.90;;;;;;5066867;28;20630;-76
2022/05/07 08:46:11;;;;;;;9.38;7.45;;;18.30;99.90;;;;;;5055578;28;20702;-74
2022/05/07 08:48:40;;;;;;;9.77;7.18;;;18.10;99.90;;;;;;5064431;28;20210;-77
2022/05/07 08:51:07;;;;;;;7.68;6.22;;;18.10;99.90;;;;;;5073837;28;20202;-73
2022/05/07 08:53:35;;;;;;;7.07;6.47;;;18.10;99.90;;;;;;5074368;28;20260;-75
2022/05/07 08:56:02;;;;;;;6.75;6.07;;;18.30;99.90;;;;;;5074775;28;20324;-79
2022/05/07 08:58:30;;;;;;;8.55;6.50;;;18.40;99.90;;;;;;5073821;28;20206;-85
2022/05/07 09:00:59;;;;;;;8.10;7.00;;;18.60;99.90;;;;;;5074379;28;20276;-73
2022/05/07 09:03:37;;;;;;;9.18;5.88;;;18.70;99.90;;;;;;5055174;28;20221;-78
2022/05/07 09:06:14;;;;;;;7.65;6.65;;;18.90;99.90;;;;;;5054597;28;20257;-78
2022/05/07 09:08:42;;;;;;;8.07;6.22;;;19.10;99.90;;;;;;5053881;28;20673;-75
2022/05/07 09:11:09;;;;;;;7.32;6.72;;;20.00;99.90;;;;;;5053484;28;20203;-75
2022/05/07 09:13:38;;;;;;;8.75;6.32;;;20.10;99.90;;;;;;5054407;28;20253;-81
2022/05/07 09:16:08;;;;;;;10.45;6.85;;;21.40;99.90;;;;;;5054173;28;20731;-75
2022/05/07 09:18:35;;;;;;;8.73;6.07;;;20.40;99.90;;;;;;5072227;28;20742;-73
2022/05/07 09:21:23;;;;;;;7.35;5.85;;;22.30;99.90;;;;;;5066278;28;20666;-72
2022/05/07 09:24:05;;;;;;;8.23;6.00;;;22.40;99.90;;;;;;5064926;28;20264;-79
2022/05/07 09:26:34;;;;;;;5.57;4.90;;;22.90;99.90;;;;;;5072869;28;20297;-75
2022/05/07 09:29:03;;;;;;;10.52;6.38;;;22.90;99.90;;;;;;5070487;28;20264;-73
2022/05/07 09:31:31;;;;;;;9.10;6.43;;;22.00;99.90;;;;;;5071467;28;20673;-72
2022/05/07 09:35:47;;;;;;;8.63;6.35;;;21.90;99.90;;;;;;5067778;28;20198;-76
2022/05/07 09:36:45;;;;;;;8.77;5.70;;;21.90;99.90;;;;;;5062520;28;20678;-74
2022/05/07 09:39:14;;;;;;;8.65;6.35;;;25.90;99.90;;;;;;5072298;28;20202;-73
2022/05/07 09:41:42;;;;;;;6.70;5.93;;;24.40;99.90;;;;;;5072346;28;20209;-80
2022/05/07 09:44:12;;;;;;;6.40;5.47;;;26.00;99.90;;;;;;5072053;28;20626;-73
2022/05/07 09:46:39;;;;;;;6.45;5.90;;;26.10;99.90;;;;;;5072740;28;20658;-84
2022/05/07 09:49:07;;;;;;;8.15;6.90;;;26.40;99.90;;;;;;5070521;28;20206;-75
2022/05/07 09:51:34;;;;;;;5.88;5.28;;;27.50;99.90;;;;;;5071398;28;20674;-76
2022/05/07 09:59:33;;;;;;;5.85;5.25;;;28.80;99.90;;;;;;5061722;28;20209;-79
2022/05/07 10:02:24;;;;;;;6.07;5.30;;;29.40;99.90;;;;;;5072468;28;20297;-79
2022/05/07 10:05:07;;;;;;;5.50;5.10;;;30.00;99.90;;;;;;5072353;28;20202;-84
2022/05/07 10:07:44;;;;;;;6.13;5.50;;;28.80;99.90;;;;;;5072963;28;20674;-78
2022/05/07 10:10:24;;;;;;;6.13;5.53;;;28.10;99.90;;;;;;5071831;28;20718;-74
2022/05/07 10:12:54;;;;;;;5.35;4.95;;;27.30;99.90;;;;;;5060195;28;20201;-79
2022/05/07 10:15:25;;;;;;;5.47;5.00;;;27.40;99.90;;;;;;5071521;28;20234;-79
2022/05/07 10:17:59;;;;;;;7.10;6.50;;;29.10;99.90;;;;;;5068172;28;20260;-78
2022/05/07 10:20:37;;;;;;;7.00;6.32;;;29.50;99.90;;;;;;5064792;28;20292;-75
2022/05/07 10:23:04;;;;;;;8.27;5.82;;;29.40;99.90;;;;;;5072018;28;20425;-76
2022/05/07 10:25:31;;;;;;;6.68;6.18;;;29.70;99.90;;;;;;5061714;28;20701;-75
2022/05/07 10:28:09;;;;;;;7.60;6.88;;;30.60;99.90;;;;;;5069541;28;20248;-73
2022/05/07 10:30:48;;;;;;;7.15;6.50;;;30.20;99.90;;;;;;5072558;28;20385;-80
2022/05/07 10:33:15;;;;;;;8.15;6.78;;;26.40;99.90;;;;;;5058113;28;20255;-86
2022/05/07 10:35:44;;;;;;;6.97;6.28;;;23.30;99.90;;;;;;5071736;28;20226;-75
2022/05/07 10:38:13;;;;;;;6.68;5.93;;;22.30;99.90;;;;;;5071452;28;20238;-79
2022/05/07 10:40:51;;;;;;;8.75;6.72;;;21.60;99.90;;;;;;5071489;28;20222;-76
2022/05/07 10:43:29;;;;;;;6.82;6.10;;;21.30;99.90;;;;;;5070494;28;20285;-78
2022/05/07 10:46:00;;;;;;;6.63;6.03;;;21.30;99.90;;;;;;5063774;28;20290;-75
2022/05/07 10:48:27;;;;;;;7.07;6.43;;;21.60;99.90;;;;;;5070951;28;20206;-74
2022/05/07 10:51:00;;;;;;;7.15;6.43;;;21.20;99.90;;;;;;5061867;28;20237;-74
2022/05/07 10:53:37;;;;;;;6.35;5.72;;;21.00;99.90;;;;;;5071155;28;20631;-73
2022/05/07 10:56:04;;;;;;;6.18;5.65;;;21.40;99.90;;;;;;5064173;28;20244;-75
2022/05/07 10:58:31;;;;;;;7.25;6.55;;;21.70;99.90;;;;;;5058283;28;20256;-75
2022/05/07 11:01:00;;;;;;;8.13;5.82;;;21.50;99.90;;;;;;5062910;28;20264;-76
2022/05/07 11:03:28;;;;;;;7.57;6.82;;;21.60;99.90;;;;;;5058673;28;20298;-73
2022/05/07 11:06:01;;;;;;;7.03;6.43;;;21.80;99.90;;;;;;5067195;28;20210;-74
2022/05/07 11:08:30;;;;;;;7.40;5.65;;;22.20;99.90;;;;;;5062108;28;20662;-74
2022/05/07 11:11:09;;;;;;;6.88;6.28;;;22.30;99.90;;;;;;5070598;28;20214;-78
2022/05/07 11:13:46;;;;;;;11.82;8.30;;;22.10;99.90;;;;;;5071637;28;20210;-75
2022/05/07 11:16:16;;;;;;;6.43;5.75;;;22.00;99.90;;;;;;5070110;28;20632;-77
2022/05/07 11:18:45;;;;;;;7.53;6.03;;;21.80;99.90;;;;;;5071387;28;20199;-75
2022/05/07 11:21:13;;;;;;;7.22;5.78;;;22.20;99.90;;;;;;5070960;28;20205;-75
2022/05/07 11:23:42;;;;;;;9.90;5.57;;;22.30;99.90;;;;;;5071229;28;20258;-75
2022/05/07 11:26:13;;;;;;;7.85;5.75;;;22.30;99.90;;;;;;5070875;28;20275;-73
2022/05/07 11:28:43;;;;;;;9.13;5.95;;;22.10;99.90;;;;;;5070863;28;20601;-77
2022/05/07 11:31:10;;;;;;;6.03;5.53;;;22.40;99.90;;;;;;5070728;28;20197;-78
2022/05/07 11:33:38;;;;;;;6.25;5.20;;;22.30;99.90;;;;;;5071169;28;20206;-76
2022/05/07 11:36:08;;;;;;;6.60;5.97;;;22.00;99.90;;;;;;5068352;28;20228;-75
2022/05/07 11:38:35;;;;;;;6.88;5.65;;;21.60;99.90;;;;;;5067419;28;20206;-77
2022/05/07 11:41:14;;;;;;;6.90;6.22;;;22.00;99.90;;;;;;5067419;28;20206;-79
2022/05/07 11:46:26;;;;;;;6.43;5.85;;;21.50;99.90;;;;;;5057613;28;20229;-77
2022/05/07 11:48:54;;;;;;;6.72;5.88;;;21.30;99.90;;;;;;5070832;28;20289;-79
2022/05/07 11:51:25;;;;;;;7.82;5.88;;;21.60;99.90;;;;;;5057173;28;20215;-76
2022/05/07 11:53:53;;;;;;;7.07;5.68;;;21.70;99.90;;;;;;5050413;28;20207;-76
2022/05/07 11:56:20;;;;;;;8.25;5.32;;;21.70;99.90;;;;;;5070012;28;20238;-77
2022/05/07 11:58:49;;;;;;;9.85;5.70;;;21.40;99.90;;;;;;5066641;28;20206;-77
2022/05/07 12:01:20;;;;;;;6.78;4.78;;;21.70;99.90;;;;;;5058582;28;20202;-75
2022/05/07 12:03:47;;;;;;;8.40;5.72;;;22.50;99.90;;;;;;5058862;28;20203;-76
2022/05/07 12:06:26;;;;;;;5.93;5.40;;;22.50;99.90;;;;;;5064570;28;20283;-77
2022/05/07 12:08:53;;;;;;;5.80;5.10;;;22.30;99.90;;;;;;5058213;28;20261;-78
2022/05/07 12:11:21;;;;;;;5.53;5.00;;;21.90;99.90;;;;;;5051164;28;20206;-78
2022/05/07 12:13:48;;;;;;;6.97;4.93;;;21.40;99.90;;;;;;5053614;28;20297;-76
2022/05/07 12:19:00;;;;;;;5.13;4.70;;;21.60;99.90;;;;;;5055583;28;20212;-75
2022/05/07 12:29:51;;;;;;;7.57;4.32;;;23.30;99.90;;;;;;5066537;28;20392;-74
2022/05/07 12:32:20;;;;;;;8.55;4.85;;;23.20;99.90;;;;;;5070115;28;20197;-78
2022/05/07 12:34:47;;;;;;;5.75;3.75;;;23.10;99.90;;;;;;5067993;28;20203;-77
2022/05/07 12:37:16;;;;;;;5.05;3.55;;;22.50;99.90;;;;;;5059514;28;20287;-73
2022/05/07 12:39:43;;;;;;;5.03;3.97;;;22.20;99.90;;;;;;5057303;28;20213;-75
2022/05/07 12:42:12;;;;;;;8.13;4.88;;;21.70;99.90;;;;;;5068292;28;20930;-77
2022/05/07 12:44:42;;;;;;;4.97;4.07;;;22.30;99.90;;;;;;5071372;28;20289;-79
2022/05/07 12:47:10;;;;;;;4.40;3.92;;;22.70;99.90;;;;;;5068986;28;20674;-74
2022/05/07 12:49:37;;;;;;;5.88;4.50;;;22.60;99.90;;;;;;5068630;28;20232;-74
2022/05/07 12:52:07;;;;;;;7.13;4.95;;;22.80;99.90;;;;;;5065559;28;20669;-78
2022/05/07 12:54:36;;;;;;;4.50;4.10;;;23.50;99.90;;;;;;5073638;28;20633;-75
2022/05/07 12:57:04;;;;;;;5.70;4.03;;;23.70;99.90;;;;;;5069261;28;20226;-76
2022/05/07 12:59:31;;;;;;;7.00;5.20;;;23.40;99.90;;;;;;5061587;28;20593;-81
2022/05/07 13:01:58;;;;;;;4.95;4.50;;;22.60;99.90;;;;;;5056846;28;20705;-77
2022/05/07 13:04:26;;;;;;;3.67;3.38;;;21.80;99.90;;;;;;5051408;28;20758;-78
2022/05/07 13:06:53;;;;;;;4.15;3.72;;;22.10;99.90;;;;;;5055306;28;20328;-75
2022/05/07 13:09:20;;;;;;;7.00;4.65;;;22.50;99.90;;;;;;5061657;28;20206;-76
2022/05/07 13:11:48;;;;;;;3.20;2.90;;;22.80;99.90;;;;;;5061308;28;20254;-78
2022/05/07 13:14:15;;;;;;;3.90;3.25;;;23.20;99.90;;;;;;5072862;28;20210;-74
2022/05/07 13:16:43;;;;;;;3.88;3.58;;;23.20;99.90;;;;;;5061561;28;20257;-76
2022/05/07 13:19:10;;;;;;;5.63;3.22;;;23.10;99.90;;;;;;5063753;28;20216;-76
2022/05/07 13:21:37;;;;;;;5.47;3.67;;;23.40;99.90;;;;;;5067816;28;20202;-74
2022/05/07 13:24:05;;;;;;;4.38;3.40;;;23.70;99.90;;;;;;5064410;28;20214;-82
2022/05/07 13:26:32;;;;;;;3.90;3.28;;;23.90;99.90;;;;;;5073411;28;20210;-80
2022/05/07 13:29:01;;;;;;;4.63;3.03;;;23.90;99.90;;;;;;5058883;28;20247;-83